createdAt,value
2023-05-09T00:00:11.303Z,15.20
2023-05-09T00:02:40.236Z,15.20
2023-05-09T00:05:08.721Z,15.40
2023-05-09T00:07:36.258Z,15.50
2023-05-09T00:10:04.389Z,15.10
2023-05-09T00:12:32.073Z,15.10
2023-05-09T00:14:59.816Z,15.00
2023-05-09T00:17:29.037Z,15.00
2023-05-09T00:19:57.712Z,15.00
2023-05-09T00:22:25.194Z,15.10
2023-05-09T00:24:52.779Z,15.10
2023-05-09T00:27:20.548Z,15.00
2023-05-09T00:29:48.060Z,14.90
2023-05-09T00:32:15.778Z,14.70
2023-05-09T00:34:43.420Z,14.70
2023-05-09T00:37:10.950Z,14.80
2023-05-09T00:39:39.315Z,14.90
2023-05-09T00:42:07.179Z,15.00
2023-05-09T00:44:34.727Z,15.30
2023-05-09T00:47:02.249Z,15.50
2023-05-09T00:49:29.969Z,15.70
2023-05-09T00:51:57.488Z,15.70
2023-05-09T00:54:25.318Z,15.40
2023-05-09T00:56:52.998Z,15.30
2023-05-09T00:59:21.880Z,15.30
2023-05-09T01:01:49.614Z,15.50
2023-05-09T01:04:17.479Z,15.60
2023-05-09T01:07:09.477Z,15.70
2023-05-09T01:09:55.082Z,15.80
2023-05-09T01:12:30.041Z,15.60
2023-05-09T01:15:06.812Z,15.40
2023-05-09T01:18:06.776Z,15.20
2023-05-09T01:20:40.070Z,15.00
2023-05-09T01:23:34.677Z,15.10
2023-05-09T01:26:07.345Z,15.40
2023-05-09T01:28:46.402Z,15.60
2023-05-09T01:31:14.658Z,15.80
2023-05-09T01:33:44.593Z,15.90
2023-05-09T01:36:18.298Z,15.70
2023-05-09T01:38:50.275Z,15.50
2023-05-09T01:41:19.616Z,15.30
2023-05-09T01:43:49.569Z,15.10
2023-05-09T01:46:18.568Z,15.00
2023-05-09T01:48:46.934Z,15.10
2023-05-09T01:51:16.624Z,15.10
2023-05-09T01:53:45.399Z,15.40
2023-05-09T01:56:13.394Z,15.10
2023-05-09T01:58:42.597Z,14.90
2023-05-09T02:01:10.775Z,14.80
2023-05-09T02:03:39.361Z,14.70
2023-05-09T02:06:07.726Z,14.90
2023-05-09T02:08:36.114Z,15.10
2023-05-09T02:11:03.727Z,15.30
2023-05-09T02:13:31.394Z,15.50
2023-05-09T02:15:59.619Z,15.20
2023-05-09T02:18:27.770Z,15.00
2023-05-09T02:20:55.310Z,15.10
2023-05-09T02:23:22.876Z,15.00
2023-05-09T02:25:51.126Z,15.10
2023-05-09T02:28:19.704Z,15.00
2023-05-09T02:30:49.970Z,14.90
2023-05-09T02:33:18.273Z,14.70
2023-05-09T02:35:46.965Z,14.60
2023-05-09T02:38:15.039Z,14.60
2023-05-09T02:40:44.564Z,14.60
2023-05-09T02:43:12.273Z,14.60
2023-05-09T02:45:40.341Z,14.60
2023-05-09T02:48:09.233Z,14.60
2023-05-09T02:50:42.978Z,14.50
2023-05-09T02:53:10.722Z,14.40
2023-05-09T02:55:38.247Z,14.40
2023-05-09T02:58:13.460Z,14.40
2023-05-09T03:00:43.083Z,14.40
2023-05-09T03:03:11.005Z,14.40
2023-05-09T03:05:38.551Z,14.40
2023-05-09T03:08:06.181Z,14.60
2023-05-09T03:10:33.854Z,14.80
2023-05-09T03:13:01.674Z,14.80
2023-05-09T03:15:29.190Z,14.80
2023-05-09T03:17:56.776Z,14.60
2023-05-09T03:20:24.374Z,14.50
2023-05-09T03:22:51.873Z,14.60
2023-05-09T03:25:19.647Z,14.70
2023-05-09T03:27:47.149Z,14.70
2023-05-09T03:30:15.072Z,14.70
2023-05-09T03:32:42.703Z,14.60
2023-05-09T03:35:10.237Z,14.50
2023-05-09T03:37:37.790Z,14.50
2023-05-09T03:40:07.263Z,14.70
2023-05-09T03:42:34.873Z,14.70
2023-05-09T03:45:02.371Z,14.70
2023-05-09T03:47:30.019Z,14.80
2023-05-09T03:49:57.625Z,14.90
2023-05-09T03:52:25.125Z,14.90
2023-05-09T03:54:52.710Z,14.90
2023-05-09T03:57:20.220Z,15.10
2023-05-09T03:59:47.809Z,15.10
2023-05-09T04:02:15.772Z,15.00
2023-05-09T04:04:43.535Z,15.00
2023-05-09T04:07:11.176Z,15.00
2023-05-09T04:09:39.094Z,14.90
2023-05-09T04:12:07.022Z,14.80
2023-05-09T04:14:34.510Z,14.90
2023-05-09T04:17:02.359Z,14.90
2023-05-09T04:19:30.158Z,15.00
2023-05-09T04:21:57.640Z,14.90
2023-05-09T04:24:25.212Z,14.90
2023-05-09T04:26:52.730Z,14.90
2023-05-09T04:29:20.549Z,15.10
2023-05-09T04:31:48.296Z,15.20
2023-05-09T04:34:16.070Z,15.30
2023-05-09T04:36:43.561Z,15.20
2023-05-09T04:39:11.341Z,15.20
2023-05-09T04:41:39.042Z,15.20
2023-05-09T04:44:06.539Z,15.20
2023-05-09T04:46:34.248Z,15.30
2023-05-09T04:49:01.857Z,15.50
2023-05-09T04:51:29.508Z,15.40
2023-05-09T04:54:07.022Z,15.50
2023-05-09T04:56:34.488Z,15.60
2023-05-09T04:59:01.992Z,15.70
2023-05-09T05:01:29.657Z,15.60
2023-05-09T05:03:58.052Z,15.80
2023-05-09T05:06:25.592Z,15.90
2023-05-09T05:08:53.262Z,16.00
2023-05-09T05:11:21.980Z,16.00
2023-05-09T05:13:49.462Z,15.90
2023-05-09T05:16:17.166Z,16.10
2023-05-09T05:18:44.953Z,16.10
2023-05-09T05:21:12.461Z,15.70
2023-05-09T05:23:40.005Z,15.90
2023-05-09T05:26:07.490Z,15.80
2023-05-09T05:28:34.961Z,15.50
2023-05-09T05:31:02.621Z,15.60
2023-05-09T05:33:30.188Z,15.60
2023-05-09T05:35:57.698Z,15.60
2023-05-09T05:38:25.267Z,15.60
2023-05-09T05:40:52.797Z,15.70
2023-05-09T05:43:20.356Z,15.80
2023-05-09T05:45:47.964Z,15.70
2023-05-09T05:48:15.569Z,15.40
2023-05-09T05:50:43.110Z,15.50
2023-05-09T05:53:10.795Z,15.50
2023-05-09T05:55:38.416Z,15.40
2023-05-09T05:58:06.910Z,15.50
2023-05-09T06:00:34.648Z,15.50
2023-05-09T06:03:02.211Z,15.40
2023-05-09T06:05:29.958Z,15.10
2023-05-09T06:07:57.519Z,15.10
2023-05-09T06:10:25.020Z,15.00
2023-05-09T06:12:52.612Z,15.00
2023-05-09T06:15:20.446Z,14.90
2023-05-09T06:17:48.067Z,14.90
2023-05-09T06:20:15.637Z,14.80
2023-05-09T06:22:43.264Z,14.80
2023-05-09T06:25:10.897Z,14.70
2023-05-09T06:27:38.777Z,14.60
2023-05-09T06:30:23.917Z,14.60
2023-05-09T06:32:54.293Z,14.60
2023-05-09T06:35:22.083Z,14.60
2023-05-09T06:37:50.305Z,14.70
2023-05-09T06:40:17.985Z,14.80
2023-05-09T06:42:45.959Z,14.90
2023-05-09T06:45:13.829Z,15.10
2023-05-09T06:47:41.499Z,15.20
2023-05-09T06:50:09.459Z,15.30
2023-05-09T06:52:37.059Z,15.30
2023-05-09T06:55:05.121Z,15.30
2023-05-09T06:57:32.903Z,15.30
2023-05-09T07:00:00.547Z,15.30
2023-05-09T07:02:28.101Z,15.40
2023-05-09T07:05:30.063Z,15.40
2023-05-09T07:07:57.727Z,15.40
2023-05-09T07:10:25.582Z,15.50
2023-05-09T07:12:53.154Z,15.50
2023-05-09T07:15:32.430Z,15.60
2023-05-09T07:18:04.822Z,15.60
2023-05-09T07:20:32.425Z,15.60
2023-05-09T07:23:00.168Z,15.70
2023-05-09T07:25:27.668Z,15.70
2023-05-09T07:27:55.362Z,15.80
2023-05-09T07:30:22.926Z,15.60
2023-05-09T07:32:50.555Z,15.60
2023-05-09T07:35:20.181Z,15.70
2023-05-09T07:37:47.767Z,15.60
2023-05-09T07:40:15.918Z,15.70
2023-05-09T07:42:49.949Z,15.60
2023-05-09T07:45:18.793Z,15.60
2023-05-09T07:47:47.497Z,15.50
2023-05-09T07:50:15.456Z,15.50
2023-05-09T07:52:42.970Z,15.40
2023-05-09T07:55:12.498Z,15.50
2023-05-09T07:57:40.361Z,15.60
2023-05-09T08:00:09.114Z,15.70
2023-05-09T08:02:36.738Z,15.70
2023-05-09T08:05:04.630Z,15.60
2023-05-09T08:07:32.362Z,15.60
2023-05-09T08:09:59.849Z,15.50
2023-05-09T08:12:27.492Z,15.60
2023-05-09T08:14:54.983Z,15.50
2023-05-09T08:17:22.534Z,15.50
2023-05-09T08:19:50.217Z,15.60
2023-05-09T08:22:20.827Z,15.50
2023-05-09T08:24:48.451Z,15.70
2023-05-09T08:27:16.105Z,15.80
2023-05-09T08:29:44.047Z,15.80
2023-05-09T08:32:11.678Z,16.00
2023-05-09T08:34:39.938Z,16.00
2023-05-09T08:37:07.860Z,15.80
2023-05-09T08:39:35.438Z,15.60
2023-05-09T08:42:03.335Z,15.60
2023-05-09T08:44:32.297Z,15.60
2023-05-09T08:47:01.747Z,15.50
2023-05-09T08:49:30.418Z,15.30
2023-05-09T08:51:58.877Z,15.30
2023-05-09T08:54:26.653Z,15.40
2023-05-09T08:56:54.969Z,15.50
2023-05-09T08:59:22.779Z,15.70
2023-05-09T09:01:51.099Z,15.70
2023-05-09T09:04:18.718Z,15.40
2023-05-09T09:06:46.995Z,15.30
2023-05-09T09:09:16.442Z,15.20
2023-05-09T09:11:44.897Z,15.00
2023-05-09T09:14:15.760Z,14.90
2023-05-09T09:16:45.162Z,15.00
2023-05-09T09:19:16.957Z,15.20
2023-05-09T09:21:47.480Z,15.20
2023-05-09T09:24:20.436Z,15.30
2023-05-09T09:26:49.665Z,15.20
2023-05-09T09:29:19.104Z,15.10
2023-05-09T09:31:48.103Z,15.00
2023-05-09T09:34:22.064Z,14.90
2023-05-09T09:36:50.371Z,15.00
2023-05-09T09:39:18.016Z,15.00
2023-05-09T09:41:45.869Z,14.90
2023-05-09T09:44:21.274Z,14.80
2023-05-09T09:46:52.880Z,14.80
2023-05-09T09:49:22.443Z,14.80
2023-05-09T09:51:57.765Z,14.90
2023-05-09T09:54:28.665Z,14.90
2023-05-09T09:56:57.144Z,14.80
2023-05-09T09:59:26.792Z,14.70
2023-05-09T10:02:12.414Z,14.80
2023-05-09T10:04:43.462Z,15.00
2023-05-09T10:07:14.641Z,14.80
2023-05-09T10:09:44.198Z,14.80
2023-05-09T10:12:14.871Z,14.60
2023-05-09T10:14:43.549Z,14.50
2023-05-09T10:17:14.408Z,14.40
2023-05-09T10:19:46.634Z,14.50
2023-05-09T10:22:18.115Z,14.50
2023-05-09T10:25:00.405Z,14.50
2023-05-09T10:27:31.059Z,14.40
2023-05-09T10:30:12.849Z,14.40
2023-05-09T10:33:04.871Z,14.50
2023-05-09T10:35:46.098Z,14.70
2023-05-09T10:38:14.153Z,14.80
2023-05-09T10:40:42.184Z,14.70
2023-05-09T10:43:09.746Z,14.90
2023-05-09T10:45:37.627Z,14.70
2023-05-09T10:48:09.076Z,14.70
2023-05-09T10:50:40.511Z,14.70
2023-05-09T10:53:15.050Z,14.70
2023-05-09T10:55:55.890Z,14.90
2023-05-09T10:58:31.508Z,14.80
2023-05-09T11:01:00.706Z,15.00
2023-05-09T11:03:30.205Z,15.10
2023-05-09T11:05:59.005Z,15.20
2023-05-09T11:08:26.924Z,15.00
2023-05-09T11:10:56.456Z,15.10
2023-05-09T11:13:26.060Z,15.10
2023-05-09T11:16:02.358Z,14.90
2023-05-09T11:18:30.636Z,14.90
2023-05-09T11:20:59.123Z,14.80
2023-05-09T11:23:27.591Z,14.70
2023-05-09T11:26:06.600Z,14.60
2023-05-09T11:28:36.970Z,14.60
2023-05-09T11:31:11.435Z,14.60
2023-05-09T11:33:40.259Z,14.50
2023-05-09T11:36:30.235Z,14.70
2023-05-09T11:39:08.534Z,14.70
2023-05-09T11:41:47.400Z,14.70
2023-05-09T11:44:19.096Z,14.80
2023-05-09T11:46:47.996Z,14.80
2023-05-09T11:49:17.193Z,14.90
2023-05-09T11:51:44.824Z,14.80
2023-05-09T11:54:13.794Z,14.90
2023-05-09T11:56:42.257Z,14.60
2023-05-09T11:59:11.594Z,14.60
2023-05-09T12:01:39.194Z,14.60
2023-05-09T12:04:08.703Z,14.70
2023-05-09T12:06:37.331Z,14.90
2023-05-09T12:09:04.911Z,14.80
2023-05-09T12:11:32.630Z,14.70
2023-05-09T12:14:00.161Z,14.80
2023-05-09T12:16:27.917Z,15.00
2023-05-09T12:18:55.519Z,15.10
2023-05-09T12:21:23.390Z,15.30
2023-05-09T12:23:55.848Z,15.30
2023-05-09T12:26:23.871Z,15.30
2023-05-09T12:28:52.426Z,15.30
2023-05-09T12:31:20.730Z,15.20
2023-05-09T12:33:48.289Z,15.20
2023-05-09T12:36:16.894Z,15.40
2023-05-09T12:38:56.396Z,15.70
2023-05-09T12:43:55.164Z,15.30
2023-05-09T12:46:22.806Z,15.20
2023-05-09T12:48:50.697Z,15.00
2023-05-09T12:51:22.579Z,15.10
2023-05-09T12:53:50.336Z,15.10
2023-05-09T12:56:19.959Z,15.10
2023-05-09T12:58:54.979Z,15.00
2023-05-09T13:01:29.261Z,15.00
2023-05-09T13:04:05.320Z,15.10
2023-05-09T13:06:33.197Z,15.30
2023-05-09T13:09:02.580Z,15.30
2023-05-09T13:11:30.161Z,15.60
2023-05-09T13:13:58.537Z,15.70
2023-05-09T13:16:26.255Z,15.70
2023-05-09T13:18:53.746Z,15.70
2023-05-09T13:21:21.255Z,15.30
2023-05-09T13:23:50.305Z,15.20
2023-05-09T13:26:17.833Z,14.90
2023-05-09T13:28:45.478Z,14.60
2023-05-09T13:31:12.992Z,14.60
2023-05-09T13:33:40.848Z,14.50
2023-05-09T13:36:08.417Z,14.50
2023-05-09T13:38:40.902Z,14.90
2023-05-09T13:41:09.576Z,14.90
2023-05-09T13:43:37.603Z,14.80
2023-05-09T13:46:05.307Z,14.90
2023-05-09T13:48:32.860Z,15.00
2023-05-09T13:51:01.368Z,14.70
2023-05-09T13:53:28.973Z,14.70
2023-05-09T13:55:56.489Z,14.80
2023-05-09T13:58:24.099Z,14.80
2023-05-09T14:00:51.709Z,14.90
2023-05-09T14:03:19.232Z,15.10
2023-05-09T14:05:48.457Z,15.20
2023-05-09T14:08:16.793Z,15.20
2023-05-09T14:10:44.821Z,14.80
2023-05-09T14:13:12.898Z,14.90
2023-05-09T14:15:40.689Z,15.10
2023-05-09T14:18:08.366Z,15.30
2023-05-09T14:20:37.778Z,15.60
2023-05-09T14:23:05.513Z,15.60
2023-05-09T14:25:33.048Z,15.50
2023-05-09T14:28:00.642Z,15.20
2023-05-09T14:30:28.428Z,15.20
2023-05-09T14:32:56.225Z,15.50
2023-05-09T14:35:24.056Z,15.60
2023-05-09T14:37:51.681Z,15.50
2023-05-09T14:40:20.762Z,15.20
2023-05-09T14:42:48.690Z,15.30
2023-05-09T14:45:17.231Z,15.30
2023-05-09T14:47:44.742Z,15.00
2023-05-09T14:50:16.182Z,15.20
2023-05-09T14:52:44.483Z,15.20
2023-05-09T14:55:12.129Z,15.20
2023-05-09T14:57:39.963Z,15.20
2023-05-09T15:00:19.554Z,15.20
2023-05-09T15:02:49.425Z,15.10
2023-05-09T15:05:17.004Z,15.10
2023-05-09T15:07:44.555Z,14.90
2023-05-09T15:10:12.190Z,14.90
2023-05-09T15:12:39.808Z,14.70
2023-05-09T15:15:17.890Z,14.80
2023-05-09T15:17:46.482Z,14.70
2023-05-09T15:20:20.415Z,14.70
2023-05-09T15:22:49.056Z,14.60
2023-05-09T15:25:17.569Z,14.60
2023-05-09T15:27:45.074Z,14.60
2023-05-09T15:30:12.980Z,14.70
2023-05-09T15:32:43.328Z,14.60
2023-05-09T15:35:11.439Z,14.60
2023-05-09T15:37:41.793Z,14.70
2023-05-09T15:40:10.285Z,14.90
2023-05-09T15:42:39.953Z,14.90
2023-05-09T15:45:08.289Z,14.90
2023-05-09T15:47:36.621Z,14.70
2023-05-09T15:50:04.727Z,14.60
2023-05-09T15:52:32.296Z,14.60
2023-05-09T15:54:59.972Z,14.70
2023-05-09T15:57:27.568Z,14.60
2023-05-09T15:59:56.118Z,14.60
2023-05-09T16:02:24.192Z,14.60
2023-05-09T16:04:52.148Z,14.70
2023-05-09T16:07:20.900Z,14.80
2023-05-09T16:09:48.540Z,15.00
2023-05-09T16:12:16.148Z,14.90
2023-05-09T16:14:43.845Z,14.70
2023-05-09T16:17:11.540Z,14.50
2023-05-09T16:19:39.333Z,14.60
2023-05-09T16:22:06.858Z,14.70
2023-05-09T16:24:34.449Z,15.00
2023-05-09T16:27:02.010Z,15.00
2023-05-09T16:29:29.612Z,15.10
2023-05-09T16:31:57.126Z,14.90
2023-05-09T16:34:24.653Z,15.00
2023-05-09T16:36:52.475Z,15.10
2023-05-09T16:39:19.959Z,14.90
2023-05-09T16:41:47.561Z,14.90
2023-05-09T16:44:15.533Z,15.10
2023-05-09T16:46:43.133Z,15.10
2023-05-09T16:49:11.261Z,15.10
2023-05-09T16:51:38.946Z,15.00
2023-05-09T16:54:06.761Z,15.00
2023-05-09T16:56:35.223Z,15.20
2023-05-09T16:59:03.548Z,15.40
2023-05-09T17:01:31.207Z,15.50
2023-05-09T17:03:58.965Z,15.30
2023-05-09T17:06:26.951Z,15.20
2023-05-09T17:08:54.727Z,15.10
2023-05-09T17:11:22.878Z,15.40
2023-05-09T17:13:50.397Z,15.40
2023-05-09T17:16:17.902Z,15.40
2023-05-09T17:18:48.382Z,15.40
2023-05-09T17:21:16.166Z,15.40
2023-05-09T17:23:44.030Z,15.50
2023-05-09T17:26:11.666Z,15.50
2023-05-09T17:28:39.167Z,15.70
2023-05-09T17:31:06.652Z,15.60
2023-05-09T17:33:34.309Z,15.70
2023-05-09T17:36:01.901Z,15.70
2023-05-09T17:38:30.213Z,15.80
2023-05-09T17:40:57.748Z,15.80
2023-05-09T17:43:27.815Z,15.70
2023-05-09T17:45:55.428Z,15.80
2023-05-09T17:48:23.016Z,15.90
2023-05-09T17:50:51.189Z,15.90
2023-05-09T17:53:18.936Z,15.90
2023-05-09T17:55:46.448Z,15.60
2023-05-09T17:58:15.265Z,15.50
2023-05-09T18:00:42.788Z,15.60
2023-05-09T18:03:10.483Z,15.70
2023-05-09T18:05:38.193Z,15.90
2023-05-09T18:08:05.808Z,15.90
2023-05-09T18:10:33.345Z,15.90
2023-05-09T18:13:01.072Z,16.00
2023-05-09T18:15:28.766Z,16.00
2023-05-09T18:17:57.877Z,16.10
2023-05-09T18:20:25.422Z,16.10
2023-05-09T18:22:54.387Z,16.20
2023-05-09T18:25:22.433Z,16.10
2023-05-09T18:27:50.163Z,16.30
2023-05-09T18:30:18.756Z,16.10
2023-05-09T18:32:46.396Z,16.20
2023-05-09T18:35:15.610Z,16.20
2023-05-09T18:37:43.224Z,16.30
2023-05-09T18:40:16.393Z,16.30
2023-05-09T18:42:43.989Z,16.20
2023-05-09T18:45:12.132Z,16.20
2023-05-09T18:47:39.940Z,16.20
2023-05-09T18:50:08.228Z,16.20
2023-05-09T18:52:35.749Z,16.30
2023-05-09T18:55:03.436Z,16.30
2023-05-09T18:57:30.883Z,16.20
2023-05-09T18:59:58.527Z,16.30
2023-05-09T19:02:26.840Z,16.30
2023-05-09T19:04:54.473Z,16.10
2023-05-09T19:07:22.808Z,16.00
2023-05-09T19:09:50.330Z,16.00
2023-05-09T19:12:17.865Z,15.90
2023-05-09T19:14:45.380Z,15.70
2023-05-09T19:17:12.999Z,15.60
2023-05-09T19:19:40.596Z,15.50
2023-05-09T19:22:08.096Z,15.60
2023-05-09T19:24:35.689Z,15.50
2023-05-09T19:27:04.199Z,15.60
2023-05-09T19:29:31.704Z,15.50
2023-05-09T19:31:59.467Z,15.60
2023-05-09T19:34:27.506Z,15.60
2023-05-09T19:36:55.053Z,15.70
2023-05-09T19:39:22.581Z,15.80
2023-05-09T19:41:50.205Z,15.60
2023-05-09T19:44:17.755Z,15.50
2023-05-09T19:46:45.332Z,15.50
2023-05-09T19:49:13.260Z,15.50
2023-05-09T19:51:40.818Z,15.50
2023-05-09T19:54:08.453Z,15.50
2023-05-09T19:56:36.027Z,15.30
2023-05-09T19:59:04.643Z,15.20
2023-05-09T20:01:32.245Z,15.20
2023-05-09T20:03:59.814Z,15.30
2023-05-09T20:06:27.361Z,15.30
2023-05-09T20:08:54.882Z,15.30
2023-05-09T20:11:22.487Z,15.40
2023-05-09T20:13:50.005Z,15.40
2023-05-09T20:16:17.691Z,15.30
2023-05-09T20:18:45.276Z,15.30
2023-05-09T20:21:12.824Z,15.40
2023-05-09T20:23:40.364Z,15.50
2023-05-09T20:26:07.861Z,15.50
2023-05-09T20:28:35.334Z,15.40
2023-05-09T20:31:02.945Z,15.40
2023-05-09T20:33:30.721Z,15.40
2023-05-09T20:35:58.154Z,15.60
2023-05-09T20:38:25.704Z,15.60
2023-05-09T20:40:53.155Z,15.40
2023-05-09T20:43:20.620Z,15.40
2023-05-09T20:45:48.483Z,15.40
2023-05-09T20:48:16.274Z,15.50
2023-05-09T20:50:43.868Z,15.70
2023-05-09T20:53:11.506Z,15.70
2023-05-09T20:55:38.939Z,15.80
2023-05-09T20:58:06.464Z,15.80
2023-05-09T21:00:34.220Z,15.70
2023-05-09T21:03:01.934Z,15.60
2023-05-09T21:05:29.559Z,15.60
2023-05-09T21:07:57.062Z,15.50
2023-05-09T21:10:24.518Z,15.50
2023-05-09T21:12:52.028Z,15.40
2023-05-09T21:15:19.647Z,15.20
2023-05-09T21:17:47.220Z,14.90
2023-05-09T21:20:15.098Z,14.80
2023-05-09T21:22:43.109Z,14.80
2023-05-09T21:25:10.726Z,14.70
2023-05-09T21:27:38.365Z,14.70
2023-05-09T21:30:06.644Z,14.60
2023-05-09T21:32:34.170Z,14.50
2023-05-09T21:35:02.403Z,14.60
2023-05-09T21:37:30.375Z,14.80
2023-05-09T21:39:57.803Z,14.80
2023-05-09T21:42:25.482Z,14.80
2023-05-09T21:44:53.252Z,14.90
2023-05-09T21:47:20.909Z,15.00
2023-05-09T21:49:48.623Z,15.10
2023-05-09T21:52:16.644Z,15.10
2023-05-09T21:54:45.574Z,15.20
2023-05-09T21:57:13.067Z,15.20
2023-05-09T21:59:40.671Z,15.20
2023-05-09T22:02:08.675Z,15.10
2023-05-09T22:04:36.406Z,15.10
2023-05-09T22:07:03.980Z,15.00
2023-05-09T22:09:31.574Z,15.00
2023-05-09T22:11:59.076Z,15.00
2023-05-09T22:14:26.641Z,15.20
2023-05-09T22:16:54.153Z,15.10
2023-05-09T22:19:21.927Z,15.00
2023-05-09T22:21:49.517Z,15.00
2023-05-09T22:24:17.232Z,15.10
2023-05-09T22:26:44.740Z,15.10
2023-05-09T22:29:12.507Z,15.00
2023-05-09T22:31:39.989Z,14.90
2023-05-09T22:34:07.518Z,14.70
2023-05-09T22:36:35.141Z,14.70
2023-05-09T22:39:02.564Z,14.70
2023-05-09T22:41:30.023Z,14.70
2023-05-09T22:43:57.624Z,14.60
2023-05-09T22:46:25.163Z,14.40
2023-05-09T22:48:52.999Z,14.40
2023-05-09T23:16:09.960Z,14.60
2023-05-09T23:18:37.458Z,14.40
2023-05-09T23:21:05.506Z,14.50
2023-05-09T23:23:33.371Z,14.50
2023-05-09T23:26:00.902Z,14.40
2023-05-09T23:28:28.371Z,14.30
2023-05-09T23:33:40.841Z,14.10
2023-05-09T23:36:09.322Z,14.00
2023-05-09T23:38:36.881Z,14.10
2023-05-09T23:41:04.745Z,14.10
2023-05-09T23:43:32.800Z,13.90
2023-05-09T23:46:00.431Z,13.90
2023-05-09T23:59:28.222Z,13.90
